Marlborough, United Kingdom
Current Conditions -  °F | °C
As of 10:18 AM on Monday 26 Jan 2015 (Local Time) from EGDM Reporting Station
Broken Clouds Broken Clouds  
Wind Chill: 50°   Ceiling: 1200
Heat Index: 50°   Visibility: 6mi
Dew Point: 46°   Wind: 14mph
Humidity: 87%   Direction: 300°WNW
Pressure: 30.21"   Gusts: NA
Location:  51.42°N, 1.73°W
Report Text: EGDM 261018Z 30012KT 9999 BKN012 SCT045 10/08 Q1023 GRN BECMG FEW015 BLU
Loading
Personal Weather Stations






























Interactive Weather Map New forecast layout! Learn more

10-Day Weather Forecast

Advertisements
Track Severe Weather on mobile